UPSVAC Airport Information Service

East Midlands Airport (1100-1199)

ICAO: EGNX Country: United Kingdom
Latitude: 52.8311 Longitude: -1.32805
Latest Arrival : UPS402 (KPHL-EGNX) Latest Departure : ABR2311(A) (EGNX-LIMC)


WX CaptureLIVE
Data provided by noaa.gov | Fetched at 16:57:27

METAR : EGNX 191620Z 28011KT 9999 BKN040 16/12 Q1015

TAF : EGNX 191058Z 1912/2012 27005KT 9999 SCT030 PROB30 TEMPO 1912/1920 8000 -SHRA BECMG 1916/1919 33010KT


Runway Data for EGNX
Data provided by openaviationdata.com

Runway ID Mag Var Hdg Length Elevation Surface ILS Freq ILS Id ILS Slope
9 -1 89° 9475 ft 306 ft Asphalt 109.35 IEMW 3
27 -1 269° 9475 ft 306 ft Asphalt 109.35 IEME 3

East Midlands Airport (1100-1199), United Kingdom
Use only for reference purposes



Not for navigational purposes.